Time;durP1;ratioP1;P1;durP2;ratioP2;P2;SDS_P1;SDS_P2;PMS_P1;PMS_P2;Temp;Humidity;BMP_temperature;BMP_pressure;BME280_temperature;BME280_humidity;BME280_pressure;Samples;Min_cycle;Max_cycle;Signal;HPM_P1;HPM_P2
2022/06/05 00:02:21;;;;;;;14.50;10.13;;;10.90;99.90;;;;;;5056521;28;20052;-59
2022/06/05 00:04:57;;;;;;;15.57;9.85;;;10.90;99.90;;;;;;5045692;28;20072;-58
2022/06/05 00:07:45;;;;;;;16.02;9.45;;;11.00;99.90;;;;;;5062144;28;20067;-58
2022/06/05 00:10:18;;;;;;;14.70;10.85;;;10.90;99.90;;;;;;5054520;28;20044;-59
2022/06/05 00:12:59;;;;;;;;;;;10.90;99.90;;;;;;5056054;28;20048;-58
2022/06/05 00:15:25;;;;;;;16.40;10.90;;;10.90;99.90;;;;;;5055578;28;20014;-56
2022/06/05 00:17:50;;;;;;;18.40;10.63;;;10.80;99.90;;;;;;5047741;28;20077;-57
2022/06/05 00:20:17;;;;;;;18.67;11.65;;;10.90;99.90;;;;;;5059235;28;20475;-58
2022/06/05 00:22:42;;;;;;;14.52;10.43;;;10.90;99.90;;;;;;5056343;28;20471;-58
2022/06/05 00:25:09;;;;;;;17.80;10.88;;;10.90;99.90;;;;;;5049734;28;20048;-58
2022/06/05 00:28:02;;;;;;;14.93;11.40;;;10.90;99.90;;;;;;5054551;28;20074;-58
2022/06/05 00:30:53;;;;;;;16.13;10.68;;;10.90;99.90;;;;;;5055010;28;20487;-57
2022/06/05 00:33:46;;;;;;;18.70;11.20;;;10.90;99.90;;;;;;5060977;28;20464;-58
2022/06/05 00:36:45;;;;;;;17.83;10.57;;;10.90;99.90;;;;;;5049302;28;20142;-56
2022/06/05 00:39:30;;;;;;;16.48;11.25;;;10.90;99.90;;;;;;5058065;28;20083;-58
2022/06/05 00:42:03;;;;;;;18.95;11.40;;;10.90;99.90;;;;;;5056937;28;20048;-58
2022/06/05 00:44:46;;;;;;;19.80;11.23;;;10.90;99.90;;;;;;5052140;28;20175;-56
2022/06/05 00:47:14;;;;;;;18.35;11.25;;;10.90;99.90;;;;;;5056687;28;20040;-58
2022/06/05 00:49:45;;;;;;;18.00;11.18;;;10.90;99.90;;;;;;5059627;28;20044;-58
2022/06/05 00:52:13;;;;;;;20.75;11.43;;;10.90;99.90;;;;;;5054657;28;20052;-58
2022/06/05 00:54:39;;;;;;;17.52;10.93;;;10.90;99.90;;;;;;5054067;28;20094;-58
2022/06/05 00:57:08;;;;;;;21.45;11.60;;;10.90;99.90;;;;;;5055868;28;20045;-58
2022/06/05 00:59:34;;;;;;;19.15;11.77;;;10.90;99.90;;;;;;5055629;28;20048;-58
2022/06/05 01:02:00;;;;;;;14.40;11.60;;;10.90;99.90;;;;;;5058832;28;20044;-58
2022/06/05 01:04:27;;;;;;;17.75;11.57;;;10.90;99.90;;;;;;5059356;28;20113;-58
2022/06/05 01:06:53;;;;;;;20.20;11.73;;;10.90;99.90;;;;;;5064913;28;20055;-58
2022/06/05 01:09:19;;;;;;;21.92;11.65;;;10.90;99.90;;;;;;5056628;28;20041;-57
2022/06/05 01:12:10;;;;;;;18.92;12.65;;;10.90;99.90;;;;;;5057867;28;20087;-58
2022/06/05 01:15:10;;;;;;;25.42;12.02;;;10.90;99.90;;;;;;5056763;28;20533;-58
2022/06/05 01:18:02;;;;;;;18.65;11.70;;;10.90;99.90;;;;;;5062065;28;20052;-58
2022/06/05 01:20:34;;;;;;;17.90;12.05;;;10.90;99.90;;;;;;5054808;28;20040;-58
2022/06/05 01:23:25;;;;;;;15.32;10.90;;;10.90;99.90;;;;;;5056928;28;20043;-58
2022/06/05 01:26:03;;;;;;;19.83;11.65;;;10.90;99.90;;;;;;5054815;28;20395;-58
2022/06/05 01:28:37;;;;;;;16.58;10.90;;;10.90;99.90;;;;;;5056623;28;20060;-58
2022/06/05 01:31:08;;;;;;;18.25;11.57;;;10.90;99.90;;;;;;5052537;28;20604;-57
2022/06/05 01:33:41;;;;;;;21.48;11.73;;;10.90;99.90;;;;;;5059011;28;20378;-58
2022/06/05 01:36:27;;;;;;;20.65;10.73;;;11.00;99.90;;;;;;5056541;28;20486;-59
2022/06/05 01:39:06;;;;;;;22.20;11.20;;;11.00;99.90;;;;;;5061383;28;20060;-58
2022/06/05 01:41:39;;;;;;;24.10;11.05;;;11.00;99.90;;;;;;5059548;28;20041;-59
2022/06/05 01:44:09;;;;;;;16.33;10.32;;;11.00;99.90;;;;;;5057884;28;20049;-57
2022/06/05 01:46:38;;;;;;;21.75;11.40;;;11.00;99.90;;;;;;5056589;28;20052;-59
2022/06/05 01:49:27;;;;;;;18.25;10.80;;;11.00;99.90;;;;;;5061914;28;20135;-59
2022/06/05 01:52:03;;;;;;;17.85;10.38;;;11.00;99.90;;;;;;5056704;28;20048;-59
2022/06/05 01:54:52;;;;;;;18.75;11.07;;;11.00;99.90;;;;;;5056182;28;20048;-59
2022/06/05 01:57:20;;;;;;;20.20;10.68;;;11.00;99.90;;;;;;5058609;28;20083;-58
2022/06/05 02:00:01;;;;;;;19.00;10.82;;;11.10;99.90;;;;;;5056322;28;20048;-58
2022/06/05 02:02:42;;;;;;;18.55;10.77;;;11.10;99.90;;;;;;5069424;28;20141;-58
2022/06/05 02:05:13;;;;;;;18.13;11.10;;;11.10;99.90;;;;;;5057645;28;20049;-60
2022/06/05 02:07:46;;;;;;;21.13;11.32;;;11.10;99.90;;;;;;5057532;28;20049;-59
2022/06/05 02:10:19;;;;;;;18.60;10.68;;;11.10;99.90;;;;;;5055968;28;21069;-59
2022/06/05 02:12:45;;;;;;;19.92;10.75;;;11.10;99.90;;;;;;5059038;28;20105;-57
2022/06/05 02:15:11;;;;;;;20.10;11.02;;;11.20;99.90;;;;;;5059154;28;20123;-58
2022/06/05 02:17:38;;;;;;;17.35;10.82;;;11.10;99.90;;;;;;5057199;28;20053;-57
2022/06/05 02:20:09;;;;;;;22.80;11.18;;;11.20;99.90;;;;;;5055652;28;20045;-59
2022/06/05 02:22:47;;;;;;;19.95;11.02;;;11.20;99.90;;;;;;5059214;28;20491;-59
2022/06/05 02:25:15;;;;;;;19.77;11.20;;;11.20;99.90;;;;;;5060382;28;20058;-58
2022/06/05 02:27:41;;;;;;;19.80;11.45;;;11.20;99.90;;;;;;5053485;28;20028;-57
2022/06/05 02:30:09;;;;;;;18.50;11.73;;;11.20;99.90;;;;;;5056475;28;20495;-59
2022/06/05 02:33:06;;;;;;;19.42;11.50;;;11.20;99.90;;;;;;5065570;28;20044;-58
2022/06/05 02:36:14;;;;;;;24.27;11.70;;;11.20;99.90;;;;;;5067454;28;21318;-58
2022/06/05 02:39:01;;;;;;;19.35;10.93;;;11.30;99.90;;;;;;5066073;28;20056;-59
2022/06/05 02:41:36;;;;;;;21.83;10.63;;;11.20;99.90;;;;;;5060609;28;21131;-59
2022/06/05 02:44:31;;;;;;;24.63;11.50;;;11.30;99.90;;;;;;5064579;28;20541;-59
2022/06/05 02:47:13;;;;;;;22.00;11.32;;;11.30;99.90;;;;;;5059920;28;20098;-57
2022/06/05 02:50:12;;;;;;;18.48;11.32;;;11.30;99.90;;;;;;5060318;28;20041;-58
2022/06/05 02:52:38;;;;;;;19.67;11.52;;;11.30;99.90;;;;;;5043136;28;20312;-59
2022/06/05 02:55:14;;;;;;;19.52;11.20;;;11.30;99.90;;;;;;5058298;28;20044;-59
2022/06/05 02:57:42;;;;;;;22.95;11.13;;;11.30;99.90;;;;;;5048576;28;20498;-59
2022/06/05 03:00:11;;;;;;;18.10;11.85;;;11.30;99.90;;;;;;5054947;28;20081;-59
2022/06/05 03:05:21;;;;;;;22.52;11.75;;;11.40;99.90;;;;;;5058955;28;20479;-57
2022/06/05 03:07:47;;;;;;;23.48;12.07;;;11.40;99.90;;;;;;5052513;28;20106;-57
2022/06/05 03:10:13;;;;;;;25.90;13.38;;;11.40;99.90;;;;;;5049655;28;20048;-57
2022/06/05 03:12:39;;;;;;;23.80;12.77;;;11.40;99.90;;;;;;5019656;28;20059;-59
2022/06/05 03:15:06;;;;;;;22.27;12.25;;;11.40;99.90;;;;;;5057947;28;20048;-59
2022/06/05 03:17:32;;;;;;;26.38;13.07;;;11.40;99.90;;;;;;5049734;28;20052;-59
2022/06/05 03:19:59;;;;;;;29.27;14.07;;;11.50;99.90;;;;;;5061714;28;20037;-58
2022/06/05 03:22:25;;;;;;;26.33;13.77;;;11.40;99.90;;;;;;5053631;28;20040;-57
2022/06/05 03:24:52;;;;;;;28.10;14.27;;;11.50;99.90;;;;;;5053774;28;20613;-57
2022/06/05 03:27:20;;;;;;;28.67;14.13;;;11.50;99.90;;;;;;5051887;28;20060;-57
2022/06/05 03:29:46;;;;;;;24.65;14.55;;;11.50;99.90;;;;;;5048050;28;20060;-57
2022/06/05 03:32:12;;;;;;;27.52;14.40;;;11.50;99.90;;;;;;5053591;28;20064;-58
2022/06/05 03:34:38;;;;;;;27.75;15.27;;;11.50;99.90;;;;;;5047174;28;20059;-58
2022/06/05 03:37:04;;;;;;;26.35;14.38;;;11.50;99.90;;;;;;5053101;28;20041;-59
2022/06/05 03:39:31;;;;;;;29.88;15.50;;;11.60;99.90;;;;;;5051923;28;20092;-59
2022/06/05 03:41:59;;;;;;;26.58;14.48;;;11.60;99.90;;;;;;5055125;28;21507;-59
2022/06/05 03:44:28;;;;;;;27.73;14.77;;;11.60;99.90;;;;;;5048916;28;20874;-59
2022/06/05 03:46:54;;;;;;;30.38;14.07;;;11.60;99.90;;;;;;5053032;28;20075;-57
2022/06/05 03:49:20;;;;;;;27.52;14.30;;;11.60;99.90;;;;;;5050832;28;20482;-57
2022/06/05 03:51:47;;;;;;;25.55;14.07;;;11.70;99.90;;;;;;5050092;28;20094;-58
2022/06/05 03:54:13;;;;;;;26.58;14.02;;;11.70;99.90;;;;;;5051016;28;20171;-58
2022/06/05 03:56:39;;;;;;;26.88;13.80;;;11.70;99.90;;;;;;5050277;28;20057;-59
2022/06/05 03:59:05;;;;;;;24.42;14.30;;;11.70;99.90;;;;;;5046119;28;20041;-58
2022/06/05 04:01:31;;;;;;;27.25;13.55;;;11.70;99.90;;;;;;5055421;28;20044;-59
2022/06/05 04:03:57;;;;;;;22.58;13.35;;;11.80;99.90;;;;;;5051153;28;20067;-57
2022/06/05 04:06:28;;;;;;;32.22;13.75;;;11.80;99.90;;;;;;5047816;28;20508;-58
2022/06/05 04:08:56;;;;;;;25.30;13.57;;;11.80;99.90;;;;;;5060373;28;24197;-58
2022/06/05 04:11:22;;;;;;;24.88;13.55;;;11.80;99.90;;;;;;5050320;28;20049;-59
2022/06/05 04:13:49;;;;;;;29.38;14.32;;;11.90;99.90;;;;;;5052893;28;20075;-57
2022/06/05 04:16:21;;;;;;;26.55;13.30;;;11.90;99.90;;;;;;5044325;28;20135;-57
2022/06/05 04:18:49;;;;;;;27.98;14.30;;;11.90;99.90;;;;;;5049269;28;20151;-58
2022/06/05 04:21:18;;;;;;;25.35;13.65;;;12.00;99.90;;;;;;5053334;28;20036;-59
2022/06/05 04:23:44;;;;;;;22.95;13.80;;;12.00;99.90;;;;;;5050036;28;20128;-58
2022/06/05 04:26:13;;;;;;;23.83;13.95;;;12.00;99.90;;;;;;5056567;28;20427;-58
2022/06/05 04:28:40;;;;;;;25.50;13.77;;;12.00;99.90;;;;;;5047705;28;20054;-58
2022/06/05 04:31:21;;;;;;;29.63;15.07;;;12.10;99.90;;;;;;5062437;28;20083;-59
2022/06/05 04:33:48;;;;;;;23.13;14.30;;;12.10;99.90;;;;;;5057764;28;20055;-59
2022/06/05 04:36:14;;;;;;;24.77;13.85;;;12.20;99.90;;;;;;5052038;28;20048;-58
2022/06/05 04:38:40;;;;;;;27.88;14.82;;;12.20;99.90;;;;;;5039429;28;20052;-58
2022/06/05 04:41:06;;;;;;;29.08;15.35;;;12.30;99.90;;;;;;5052944;28;20080;-58
2022/06/05 04:43:33;;;;;;;29.02;14.30;;;12.40;99.90;;;;;;5057058;28;20075;-58
2022/06/05 04:45:59;;;;;;;25.77;15.30;;;12.40;99.90;;;;;;5059627;28;20066;-57
2022/06/05 04:48:25;;;;;;;22.42;15.10;;;12.50;99.90;;;;;;5056839;28;20624;-59
2022/06/05 04:50:50;;;;;;;27.75;15.23;;;12.60;99.90;;;;;;5061052;28;20044;-57
2022/06/05 04:53:16;;;;;;;28.33;14.98;;;12.70;99.90;;;;;;5056229;28;20047;-57
2022/06/05 04:55:42;;;;;;;26.80;15.82;;;12.70;99.90;;;;;;5054195;28;20044;-59
2022/06/05 04:58:08;;;;;;;24.80;14.68;;;12.80;99.90;;;;;;5053974;28;20447;-58
2022/06/05 05:00:34;;;;;;;25.65;15.05;;;12.90;99.90;;;;;;5054857;28;20150;-58
2022/06/05 05:02:59;;;;;;;23.90;14.93;;;12.90;99.90;;;;;;5053381;28;20478;-57
2022/06/05 05:05:25;;;;;;;25.67;15.25;;;13.00;99.90;;;;;;5057864;28;20066;-59
2022/06/05 05:07:51;;;;;;;28.17;14.80;;;13.00;99.90;;;;;;5056292;28;20498;-58
2022/06/05 05:10:17;;;;;;;23.55;14.80;;;13.00;99.90;;;;;;5051860;28;20078;-58
2022/06/05 05:12:43;;;;;;;25.92;14.32;;;13.00;99.90;;;;;;5058775;28;20041;-58
2022/06/05 05:15:10;;;;;;;23.92;15.35;;;13.00;99.90;;;;;;5056146;28;20076;-58
2022/06/05 05:17:36;;;;;;;22.45;14.32;;;13.00;99.90;;;;;;5055014;28;20052;-59
2022/06/05 05:20:03;;;;;;;27.25;15.55;;;13.00;99.90;;;;;;5055827;28;20044;-58
2022/06/05 05:22:29;;;;;;;24.50;14.55;;;13.00;99.90;;;;;;5054436;28;20044;-57
2022/06/05 05:24:54;;;;;;;24.80;14.18;;;13.10;99.90;;;;;;5056569;28;20390;-59
2022/06/05 05:27:20;;;;;;;27.95;14.75;;;13.10;99.90;;;;;;5059276;28;20056;-59
2022/06/05 05:29:46;;;;;;;26.75;14.82;;;13.20;99.90;;;;;;5067141;28;20525;-59
2022/06/05 05:32:12;;;;;;;23.35;14.32;;;13.20;99.90;;;;;;5066244;28;20506;-59
2022/06/05 05:34:39;;;;;;;21.40;13.65;;;13.30;99.90;;;;;;5064954;28;20201;-58
2022/06/05 05:37:05;;;;;;;25.42;14.07;;;13.30;99.90;;;;;;5050170;28;20173;-59
2022/06/05 05:42:15;;;;;;;24.13;14.27;;;13.50;99.90;;;;;;5053306;28;20045;-58
2022/06/05 05:44:48;;;;;;;28.05;15.65;;;13.60;99.90;;;;;;5049388;28;20051;-57
2022/06/05 05:47:24;;;;;;;;;;;13.70;99.90;;;;;;5056215;28;20048;-60
2022/06/05 05:49:55;;;;;;;22.63;14.07;;;13.80;99.90;;;;;;5065963;28;19932;-59
2022/06/05 05:52:22;;;;;;;20.08;13.27;;;14.00;99.90;;;;;;5054945;28;20045;-58
2022/06/05 05:54:48;;;;;;;22.67;13.65;;;14.10;99.90;;;;;;5059741;28;20059;-58
2022/06/05 05:57:14;;;;;;;22.30;13.50;;;14.20;99.90;;;;;;5057821;28;20457;-59
2022/06/05 05:59:40;;;;;;;18.38;12.95;;;14.30;99.90;;;;;;5061150;28;20048;-59
2022/06/05 06:02:11;;;;;;;25.13;13.40;;;14.40;99.90;;;;;;5048843;28;20195;-59
2022/06/05 06:04:38;;;;;;;21.85;13.32;;;14.50;99.90;;;;;;5047742;28;20044;-58
2022/06/05 06:07:04;;;;;;;18.73;13.07;;;14.50;99.90;;;;;;5046947;28;20145;-57
2022/06/05 06:09:29;;;;;;;18.83;12.15;;;14.60;99.90;;;;;;5043360;28;20044;-59
2022/06/05 06:11:55;;;;;;;19.08;12.80;;;14.70;99.90;;;;;;5037669;28;20488;-58
2022/06/05 06:14:21;;;;;;;21.48;12.65;;;14.80;99.90;;;;;;5046458;28;20463;-59
2022/06/05 06:16:47;;;;;;;19.85;11.60;;;14.90;99.90;;;;;;5056451;28;20293;-61
2022/06/05 06:19:13;;;;;;;19.75;12.73;;;14.90;99.90;;;;;;5062289;28;20403;-60
2022/06/05 06:21:39;;;;;;;18.88;11.50;;;15.00;99.90;;;;;;5052478;28;20056;-59
2022/06/05 06:24:05;;;;;;;18.25;11.85;;;15.10;99.90;;;;;;5058729;28;20466;-59
2022/06/05 06:26:30;;;;;;;20.17;11.98;;;15.10;99.90;;;;;;5049091;28;20429;-61
2022/06/05 06:28:56;;;;;;;17.13;11.27;;;15.20;99.90;;;;;;5048337;28;20048;-60
2022/06/05 06:31:23;;;;;;;17.17;11.85;;;15.20;99.90;;;;;;5048101;28;20051;-61
2022/06/05 06:33:49;;;;;;;17.35;11.70;;;15.30;99.90;;;;;;5057494;28;20531;-61
2022/06/05 06:36:18;;;;;;;17.90;11.10;;;15.30;99.90;;;;;;5047321;28;20254;-61
2022/06/05 06:38:43;;;;;;;16.37;11.53;;;15.30;99.90;;;;;;4998399;28;1181881;-61
2022/06/05 06:41:16;;;;;;;16.95;11.48;;;15.40;99.90;;;;;;5048298;28;20045;-61
2022/06/05 06:43:43;;;;;;;19.73;11.60;;;15.40;99.90;;;;;;5056641;28;20543;-61
2022/06/05 06:46:10;;;;;;;15.10;11.75;;;15.50;99.90;;;;;;5052767;28;20055;-61
2022/06/05 06:48:36;;;;;;;15.70;10.93;;;15.50;99.90;;;;;;5058063;28;20044;-61
2022/06/05 06:51:03;;;;;;;15.85;11.40;;;15.60;99.90;;;;;;5054213;28;20052;-61
2022/06/05 06:53:30;;;;;;;16.42;11.00;;;15.60;99.90;;;;;;5051560;28;20493;-61
2022/06/05 06:55:57;;;;;;;13.00;10.40;;;15.70;99.90;;;;;;5059658;28;20040;-60
2022/06/05 06:58:23;;;;;;;17.55;9.82;;;15.80;99.90;;;;;;5052873;28;20052;-61
2022/06/05 07:00:49;;;;;;;14.35;10.27;;;15.90;99.90;;;;;;5050965;28;20053;-61
2022/06/05 07:03:15;;;;;;;14.82;9.82;;;15.90;99.90;;;;;;5056206;28;20051;-61
2022/06/05 07:05:42;;;;;;;14.07;10.10;;;16.00;99.90;;;;;;5050228;28;20049;-61
2022/06/05 07:08:09;;;;;;;14.65;10.25;;;16.10;99.90;;;;;;5050694;28;20525;-61
2022/06/05 07:10:36;;;;;;;14.00;9.85;;;16.20;99.90;;;;;;5055515;28;20053;-61
2022/06/05 07:13:02;;;;;;;13.73;9.65;;;16.20;99.90;;;;;;5053601;28;20045;-60
2022/06/05 07:15:33;;;;;;;12.95;9.38;;;16.40;99.90;;;;;;5050387;28;20043;-61
2022/06/05 07:18:04;;;;;;;12.73;9.27;;;16.40;99.90;;;;;;5061446;28;20124;-60
2022/06/05 07:20:35;;;;;;;12.43;9.32;;;16.50;99.90;;;;;;5061076;28;20045;-61
2022/06/05 07:23:02;;;;;;;11.98;9.43;;;16.60;99.90;;;;;;5059694;28;20112;-61
2022/06/05 07:25:29;;;;;;;12.52;9.05;;;16.70;99.90;;;;;;5055829;28;20044;-61
2022/06/05 07:27:55;;;;;;;11.43;9.52;;;16.80;99.90;;;;;;5060632;28;20059;-60
2022/06/05 07:30:21;;;;;;;12.77;8.85;;;16.90;99.90;;;;;;5058286;28;20044;-61
2022/06/05 07:32:47;;;;;;;10.60;9.05;;;17.00;99.90;;;;;;5053640;28;20068;-61
2022/06/05 07:35:14;;;;;;;12.07;8.77;;;17.00;99.90;;;;;;5051474;28;20049;-60
2022/06/05 07:37:41;;;;;;;14.70;10.18;;;17.10;99.90;;;;;;5059082;28;20087;-60
2022/06/05 07:40:08;;;;;;;11.20;9.10;;;17.20;99.90;;;;;;5046591;28;20060;-60
2022/06/05 07:42:36;;;;;;;11.45;8.90;;;17.30;99.90;;;;;;5056783;28;20036;-61
2022/06/05 07:45:03;;;;;;;14.35;8.77;;;17.30;99.90;;;;;;5050917;28;20106;-61
2022/06/05 07:47:29;;;;;;;12.38;9.43;;;17.50;99.90;;;;;;5062474;28;20457;-61
2022/06/05 07:49:54;;;;;;;12.18;8.77;;;17.50;99.90;;;;;;5056896;28;20052;-61
2022/06/05 07:55:05;;;;;;;10.88;9.13;;;17.70;99.90;;;;;;5058824;28;20048;-60
2022/06/05 07:57:31;;;;;;;11.45;8.90;;;17.70;99.90;;;;;;5057659;28;20053;-61
2022/06/05 07:59:56;;;;;;;12.55;8.68;;;17.90;99.90;;;;;;5055714;28;20037;-61
2022/06/05 08:02:25;;;;;;;9.75;8.55;;;18.00;99.90;;;;;;5054196;28;20082;-61
2022/06/05 08:04:53;;;;;;;10.80;8.32;;;18.10;99.90;;;;;;5055230;28;20055;-61
2022/06/05 08:07:25;;;;;;;11.32;8.98;;;18.30;99.90;;;;;;5059338;28;20114;-61
2022/06/05 08:09:54;;;;;;;15.03;9.43;;;18.30;99.90;;;;;;5060136;28;20129;-61
2022/06/05 08:12:23;;;;;;;9.73;8.57;;;18.50;99.90;;;;;;5056929;28;20048;-61
2022/06/05 08:14:50;;;;;;;9.77;8.27;;;18.60;99.90;;;;;;5049708;28;20460;-61
2022/06/05 08:17:21;;;;;;;11.85;8.77;;;18.60;99.90;;;;;;5056554;28;20053;-61
2022/06/05 08:19:48;;;;;;;13.50;8.82;;;18.70;99.90;;;;;;5052293;28;20388;-60
2022/06/05 08:22:16;;;;;;;9.63;7.55;;;18.80;99.90;;;;;;5053351;28;20048;-61
2022/06/05 08:24:42;;;;;;;12.20;8.30;;;18.90;99.90;;;;;;5060398;28;20502;-60
2022/06/05 08:27:11;;;;;;;10.77;7.78;;;18.90;99.90;;;;;;5061328;28;20139;-61
2022/06/05 08:29:38;;;;;;;13.13;9.30;;;19.00;99.90;;;;;;5057635;28;20049;-61
2022/06/05 08:32:04;;;;;;;12.63;8.52;;;19.10;99.90;;;;;;5055725;28;20055;-61
2022/06/05 08:34:30;;;;;;;9.50;7.75;;;19.10;99.90;;;;;;5060264;28;20527;-61
2022/06/05 08:42:40;;;;;;;9.30;8.18;;;19.40;99.90;;;;;;5064224;28;20041;-61
2022/06/05 08:45:11;;;;;;;11.73;8.68;;;19.50;99.90;;;;;;5064966;28;20044;-61
2022/06/05 08:47:53;;;;;;;10.90;7.85;;;19.60;99.90;;;;;;5060855;28;20131;-61
2022/06/05 08:50:19;;;;;;;11.55;8.05;;;19.70;99.90;;;;;;5062071;28;20044;-61
2022/06/05 08:52:55;;;;;;;9.85;7.65;;;19.80;99.90;;;;;;5062236;28;20062;-61
2022/06/05 08:55:30;;;;;;;8.00;7.10;;;19.90;99.90;;;;;;5059554;28;20076;-61
2022/06/05 08:58:15;;;;;;;10.35;8.15;;;20.00;99.90;;;;;;5066054;28;20517;-61
2022/06/05 09:00:55;;;;;;;13.70;7.78;;;20.10;99.90;;;;;;5052794;28;20037;-61
2022/06/05 09:03:39;;;;;;;8.43;7.43;;;20.20;99.90;;;;;;5053016;28;20080;-60
2022/06/05 09:06:36;;;;;;;9.02;7.43;;;20.30;99.90;;;;;;5056077;28;20123;-60
2022/06/05 09:09:06;;;;;;;8.48;7.18;;;20.40;99.90;;;;;;5055813;28;20070;-61
2022/06/05 09:11:51;;;;;;;8.77;7.18;;;20.50;99.90;;;;;;5056460;28;20048;-61
2022/06/05 09:14:39;;;;;;;8.35;7.05;;;20.60;99.90;;;;;;5055177;28;20075;-61
2022/06/05 09:17:14;;;;;;;17.65;7.97;;;20.70;99.90;;;;;;5056802;28;20428;-61
2022/06/05 09:19:41;;;;;;;12.00;7.63;;;20.80;99.90;;;;;;5059748;28;20048;-61
2022/06/05 09:22:33;;;;;;;10.65;7.18;;;20.80;99.90;;;;;;5058392;28;20071;-61
2022/06/05 09:25:05;;;;;;;11.60;7.20;;;20.80;99.90;;;;;;5036478;28;20125;-61
2022/06/05 09:28:00;;;;;;;9.52;7.50;;;20.80;99.90;;;;;;5060851;28;20044;-61
2022/06/05 09:30:37;;;;;;;9.52;7.28;;;20.80;99.50;;;;;;5034406;28;20498;-61
2022/06/05 09:33:34;;;;;;;8.73;6.65;;;20.70;99.80;;;;;;5061911;28;20044;-61
2022/06/05 09:36:07;;;;;;;15.73;7.43;;;20.90;99.90;;;;;;5048311;28;20106;-61
2022/06/05 09:38:40;;;;;;;9.32;6.95;;;21.00;99.90;;;;;;5058013;28;20406;-61
2022/06/05 09:41:16;;;;;;;7.80;7.00;;;21.20;99.80;;;;;;5059192;28;20391;-60
2022/06/05 09:44:11;;;;;;;8.68;6.60;;;21.20;99.70;;;;;;5061409;28;20047;-61
2022/06/05 09:46:56;;;;;;;9.60;7.00;;;21.40;99.90;;;;;;5058393;28;20058;-61
2022/06/05 09:49:26;;;;;;;11.15;7.30;;;21.60;99.80;;;;;;5059202;28;20094;-61
2022/06/05 09:51:52;;;;;;;7.22;6.53;;;21.80;99.80;;;;;;5060317;28;20450;-61
2022/06/05 09:54:22;;;;;;;10.23;6.00;;;21.90;99.50;;;;;;5054323;28;20789;-61
2022/06/05 10:00:14;;;;;;;6.75;6.03;;;22.30;99.30;;;;;;5061032;28;20127;-61
2022/06/05 10:02:43;;;;;;;8.85;6.18;;;22.40;98.90;;;;;;5059899;28;20041;-61
2022/06/05 10:05:26;;;;;;;9.75;5.85;;;22.60;98.20;;;;;;5059852;28;20067;-61
2022/06/05 10:08:16;;;;;;;8.45;5.97;;;22.60;98.20;;;;;;5061623;28;20052;-61
2022/06/05 10:10:45;;;;;;;7.05;5.70;;;22.70;97.60;;;;;;5061622;28;20057;-61
2022/06/05 10:13:46;;;;;;;7.07;6.28;;;22.70;96.90;;;;;;5057961;28;20227;-62
2022/06/05 10:16:19;;;;;;;11.45;6.10;;;22.70;96.70;;;;;;5066281;28;20222;-61
2022/06/05 10:18:49;;;;;;;10.70;6.22;;;22.70;96.20;;;;;;5059888;28;20063;-61
2022/06/05 10:21:20;;;;;;;9.13;5.93;;;22.70;95.80;;;;;;5078000;28;20101;-61
2022/06/05 10:24:04;;;;;;;6.68;5.65;;;22.60;95.40;;;;;;5059271;28;20040;-61
2022/06/05 10:26:37;;;;;;;12.95;6.32;;;22.70;95.80;;;;;;5059927;28;20044;-61
2022/06/05 10:29:20;;;;;;;8.25;5.68;;;22.80;95.20;;;;;;5063407;28;20048;-61
2022/06/05 10:32:05;;;;;;;6.97;5.38;;;22.90;95.80;;;;;;5055441;28;20040;-62
2022/06/05 10:35:01;;;;;;;10.50;5.60;;;23.10;95.70;;;;;;5059217;28;20076;-61
2022/06/05 10:37:40;;;;;;;6.85;5.95;;;23.30;95.10;;;;;;5060159;28;21259;-61
2022/06/05 10:40:28;;;;;;;7.10;5.47;;;23.50;94.50;;;;;;5059397;28;20119;-61
2022/06/05 10:43:05;;;;;;;7.75;5.75;;;23.60;93.90;;;;;;5058145;28;20074;-62
2022/06/05 10:45:39;;;;;;;9.10;5.20;;;23.70;93.50;;;;;;5055020;28;20049;-62
2022/06/05 10:48:08;;;;;;;6.05;5.10;;;23.80;92.50;;;;;;5065819;28;20491;-62
2022/06/05 10:51:08;;;;;;;7.60;5.28;;;23.80;92.30;;;;;;5061148;28;20090;-62
2022/06/05 10:54:09;;;;;;;7.00;5.05;;;23.90;92.50;;;;;;5043951;28;20126;-62
2022/06/05 10:57:13;;;;;;;6.07;5.43;;;23.90;92.80;;;;;;5060702;28;20044;-62
2022/06/05 10:59:59;;;;;;;10.35;5.70;;;23.90;92.30;;;;;;5053893;28;20037;-61
2022/06/05 11:02:51;;;;;;;5.35;4.63;;;23.90;91.70;;;;;;5058906;28;20063;-61
2022/06/05 11:05:35;;;;;;;6.65;5.60;;;23.80;91.40;;;;;;5051183;28;20044;-61
2022/06/05 11:08:10;;;;;;;8.48;5.55;;;23.70;90.60;;;;;;5058240;28;21250;-62
2022/06/05 11:14:03;;;;;;;7.13;5.60;;;23.70;91.00;;;;;;5055395;28;20132;-62
2022/06/05 11:16:48;;;;;;;6.55;5.53;;;23.60;91.40;;;;;;5058173;28;20048;-61
2022/06/05 11:19:20;;;;;;;9.85;6.18;;;23.60;91.30;;;;;;5057547;28;20131;-62
2022/06/05 11:21:48;;;;;;;;;;;23.60;91.10;;;;;;5060181;28;20486;-61
2022/06/05 11:24:27;;;;;;;10.60;5.00;;;23.50;91.50;;;;;;5055443;28;19924;-61
2022/06/05 11:27:02;;;;;;;8.00;5.32;;;23.50;91.30;;;;;;5061819;28;20091;-62
2022/06/05 11:29:54;;;;;;;5.75;4.68;;;23.50;90.90;;;;;;5051888;28;20044;-61
2022/06/05 11:32:23;;;;;;;9.27;5.05;;;23.50;90.70;;;;;;5050112;28;20410;-61
2022/06/05 11:35:13;;;;;;;9.32;5.30;;;23.50;91.50;;;;;;5058426;28;20048;-61
2022/06/05 11:37:44;;;;;;;10.32;5.15;;;23.50;91.50;;;;;;5041202;28;20076;-62
2022/06/05 11:40:29;;;;;;;5.88;5.03;;;23.50;91.70;;;;;;5054900;28;20060;-61
2022/06/05 11:43:14;;;;;;;7.57;5.35;;;23.60;91.90;;;;;;5060589;28;20398;-62
2022/06/05 11:45:46;;;;;;;9.20;5.00;;;23.60;91.90;;;;;;5056712;28;20056;-62
2022/06/05 11:48:36;;;;;;;6.20;5.05;;;23.60;91.80;;;;;;5053479;28;20048;-62
2022/06/05 11:51:24;;;;;;;5.55;4.80;;;23.60;91.80;;;;;;5055857;28;20119;-62
2022/06/05 11:53:56;;;;;;;7.65;5.22;;;23.70;92.20;;;;;;5058336;28;20147;-62
2022/06/05 11:56:31;;;;;;;5.80;4.80;;;23.70;91.50;;;;;;5055365;28;20537;-62
2022/06/05 11:59:10;;;;;;;7.10;5.00;;;23.80;91.50;;;;;;5060981;28;20075;-62
2022/06/05 12:01:44;;;;;;;7.18;4.95;;;23.80;91.80;;;;;;5060232;28;20044;-62
2022/06/05 12:04:25;;;;;;;8.32;4.68;;;23.90;92.00;;;;;;5053432;28;20040;-62
2022/06/05 12:06:56;;;;;;;6.28;4.80;;;24.00;91.90;;;;;;5058122;28;20045;-62
2022/06/05 12:09:25;;;;;;;14.73;5.10;;;24.10;91.20;;;;;;5060641;28;20139;-62
2022/06/05 12:12:13;;;;;;;7.00;5.30;;;24.10;90.60;;;;;;5050330;28;20048;-62
2022/06/05 12:14:57;;;;;;;5.07;4.57;;;24.10;90.30;;;;;;5052803;28;20506;-62
2022/06/05 12:17:34;;;;;;;5.00;4.50;;;24.10;90.00;;;;;;5053036;28;20044;-62
2022/06/05 12:20:12;;;;;;;5.07;4.55;;;24.10;90.30;;;;;;5053928;28;20044;-62
2022/06/05 12:23:10;;;;;;;5.15;4.15;;;24.20;89.80;;;;;;5059927;28;20048;-62
2022/06/05 12:25:47;;;;;;;5.78;4.45;;;24.20;89.60;;;;;;5055057;28;20040;-62
2022/06/05 12:28:26;;;;;;;8.18;4.55;;;24.20;89.30;;;;;;5058856;28;20483;-62
2022/06/05 12:31:04;;;;;;;5.15;4.07;;;24.30;89.10;;;;;;5057527;28;20099;-62
2022/06/05 12:33:41;;;;;;;7.50;4.90;;;24.30;89.20;;;;;;5056480;28;20043;-62
2022/06/05 12:36:35;;;;;;;6.05;4.40;;;24.40;87.00;;;;;;5055597;28;20083;-62
2022/06/05 12:39:05;;;;;;;6.93;4.65;;;24.40;86.50;;;;;;5059340;28;20103;-61
2022/06/05 12:41:54;;;;;;;7.63;4.82;;;24.50;85.80;;;;;;5058537;28;20045;-62
2022/06/05 12:44:43;;;;;;;6.82;4.70;;;24.50;83.50;;;;;;5055539;28;20106;-62
2022/06/05 12:47:44;;;;;;;4.72;4.32;;;24.50;83.50;;;;;;5058336;28;20045;-61
2022/06/05 12:50:35;;;;;;;5.25;4.75;;;24.50;82.30;;;;;;5061338;28;20114;-62
2022/06/05 12:53:22;;;;;;;7.25;4.50;;;24.50;83.30;;;;;;5058517;28;20059;-62
2022/06/05 12:56:20;;;;;;;7.72;4.50;;;24.50;83.10;;;;;;5058845;28;20044;-62
2022/06/05 12:58:59;;;;;;;6.28;4.40;;;24.50;82.70;;;;;;5037782;28;20588;-62
2022/06/05 13:01:27;;;;;;;6.57;4.63;;;24.50;82.10;;;;;;5058557;28;20041;-62
2022/06/05 13:04:06;;;;;;;6.72;4.65;;;24.50;81.60;;;;;;5061613;28;20153;-62
2022/06/05 13:06:52;;;;;;;6.55;4.97;;;24.40;82.30;;;;;;5043284;28;20057;-62
2022/06/05 13:09:35;;;;;;;5.32;4.00;;;24.40;81.00;;;;;;5064183;28;20048;-62
2022/06/05 13:12:36;;;;;;;5.68;4.70;;;24.30;81.50;;;;;;5061952;28;20079;-62
2022/06/05 13:15:39;;;;;;;8.18;4.50;;;24.30;81.50;;;;;;5028051;28;20056;-62
2022/06/05 13:18:28;;;;;;;6.65;4.65;;;24.20;81.80;;;;;;5058974;28;20387;-62
2022/06/05 13:21:04;;;;;;;6.43;4.50;;;24.20;82.60;;;;;;5062600;28;20862;-61
2022/06/05 13:23:34;;;;;;;6.00;4.35;;;24.20;83.20;;;;;;5062089;28;20074;-62
2022/06/05 13:26:22;;;;;;;5.10;4.35;;;24.20;83.10;;;;;;5060694;28;20052;-62
2022/06/05 13:29:17;;;;;;;5.32;4.68;;;24.20;83.80;;;;;;5055315;28;20431;-59
2022/06/05 13:32:19;;;;;;;5.63;4.13;;;24.20;83.00;;;;;;5061974;28;20758;-62